sensor_id;sensor_type;location;lat;lon;timestamp;P1;durP1;ratioP1;P2;durP2;ratioP2
41343;SDS011;27089;50.022;7.604;2022-12-18T00:02:07;20.57;;;9.30;;
41343;SDS011;27089;50.022;7.604;2022-12-18T00:04:37;22.33;;;10.53;;
41343;SDS011;27089;50.022;7.604;2022-12-18T00:07:04;21.63;;;9.80;;
41343;SDS011;27089;50.022;7.604;2022-12-18T00:09:31;16.53;;;8.60;;
41343;SDS011;27089;50.022;7.604;2022-12-18T00:11:58;21.47;;;10.63;;
41343;SDS011;27089;50.022;7.604;2022-12-18T00:14:25;18.70;;;8.77;;
41343;SDS011;27089;50.022;7.604;2022-12-18T00:16:53;18.23;;;9.10;;
41343;SDS011;27089;50.022;7.604;2022-12-18T00:19:20;17.83;;;8.43;;
41343;SDS011;27089;50.022;7.604;2022-12-18T00:21:47;19.03;;;9.57;;
41343;SDS011;27089;50.022;7.604;2022-12-18T00:24:14;19.57;;;9.10;;
41343;SDS011;27089;50.022;7.604;2022-12-18T00:26:41;16.40;;;8.27;;
41343;SDS011;27089;50.022;7.604;2022-12-18T00:29:09;17.53;;;8.57;;
41343;SDS011;27089;50.022;7.604;2022-12-18T00:31:39;18.73;;;9.63;;
41343;SDS011;27089;50.022;7.604;2022-12-18T00:34:10;20.77;;;10.33;;
41343;SDS011;27089;50.022;7.604;2022-12-18T00:36:38;17.40;;;9.70;;
41343;SDS011;27089;50.022;7.604;2022-12-18T00:39:06;19.77;;;9.50;;
41343;SDS011;27089;50.022;7.604;2022-12-18T00:41:34;17.97;;;9.50;;
41343;SDS011;27089;50.022;7.604;2022-12-18T00:44:18;19.73;;;9.93;;
41343;SDS011;27089;50.022;7.604;2022-12-18T00:46:46;23.13;;;10.20;;
41343;SDS011;27089;50.022;7.604;2022-12-18T00:49:15;20.30;;;9.40;;
41343;SDS011;27089;50.022;7.604;2022-12-18T00:51:46;19.03;;;10.30;;
41343;SDS011;27089;50.022;7.604;2022-12-18T00:54:14;20.00;;;9.50;;
41343;SDS011;27089;50.022;7.604;2022-12-18T00:56:42;17.37;;;8.67;;
41343;SDS011;27089;50.022;7.604;2022-12-18T00:59:09;18.67;;;9.77;;
41343;SDS011;27089;50.022;7.604;2022-12-18T01:01:36;20.63;;;9.03;;
41343;SDS011;27089;50.022;7.604;2022-12-18T01:04:03;17.70;;;8.67;;
41343;SDS011;27089;50.022;7.604;2022-12-18T01:06:31;17.47;;;9.27;;
41343;SDS011;27089;50.022;7.604;2022-12-18T01:08:58;20.63;;;9.73;;
41343;SDS011;27089;50.022;7.604;2022-12-18T01:11:25;18.00;;;8.93;;
41343;SDS011;27089;50.022;7.604;2022-12-18T01:13:52;18.70;;;9.57;;
41343;SDS011;27089;50.022;7.604;2022-12-18T01:16:20;16.17;;;8.53;;
41343;SDS011;27089;50.022;7.604;2022-12-18T01:18:50;17.17;;;8.50;;
41343;SDS011;27089;50.022;7.604;2022-12-18T01:21:19;15.70;;;9.40;;
41343;SDS011;27089;50.022;7.604;2022-12-18T01:23:50;17.33;;;8.93;;
41343;SDS011;27089;50.022;7.604;2022-12-18T01:26:18;15.47;;;8.40;;
41343;SDS011;27089;50.022;7.604;2022-12-18T01:28:46;17.13;;;8.43;;
41343;SDS011;27089;50.022;7.604;2022-12-18T01:31:14;19.60;;;8.87;;
41343;SDS011;27089;50.022;7.604;2022-12-18T01:33:44;18.17;;;8.23;;
41343;SDS011;27089;50.022;7.604;2022-12-18T01:36:14;17.20;;;8.67;;
41343;SDS011;27089;50.022;7.604;2022-12-18T01:38:42;17.87;;;8.40;;
41343;SDS011;27089;50.022;7.604;2022-12-18T01:41:12;16.80;;;8.40;;
41343;SDS011;27089;50.022;7.604;2022-12-18T01:43:41;15.87;;;8.43;;
41343;SDS011;27089;50.022;7.604;2022-12-18T01:46:08;16.13;;;8.00;;
41343;SDS011;27089;50.022;7.604;2022-12-18T01:48:35;16.43;;;9.17;;
41343;SDS011;27089;50.022;7.604;2022-12-18T01:51:03;16.77;;;8.97;;
41343;SDS011;27089;50.022;7.604;2022-12-18T01:53:32;17.40;;;9.40;;
41343;SDS011;27089;50.022;7.604;2022-12-18T01:55:59;15.53;;;8.50;;
41343;SDS011;27089;50.022;7.604;2022-12-18T01:58:30;19.27;;;9.80;;
41343;SDS011;27089;50.022;7.604;2022-12-18T02:01:01;16.70;;;8.10;;
41343;SDS011;27089;50.022;7.604;2022-12-18T02:03:29;18.27;;;9.17;;
41343;SDS011;27089;50.022;7.604;2022-12-18T02:05:57;14.60;;;8.20;;
41343;SDS011;27089;50.022;7.604;2022-12-18T02:08:31;16.63;;;8.43;;
41343;SDS011;27089;50.022;7.604;2022-12-18T02:11:05;14.20;;;7.63;;
41343;SDS011;27089;50.022;7.604;2022-12-18T02:13:41;17.23;;;8.83;;
41343;SDS011;27089;50.022;7.604;2022-12-18T02:16:13;16.37;;;8.50;;
41343;SDS011;27089;50.022;7.604;2022-12-18T02:18:53;22.83;;;9.50;;
41343;SDS011;27089;50.022;7.604;2022-12-18T02:21:25;19.33;;;10.07;;
41343;SDS011;27089;50.022;7.604;2022-12-18T02:24:03;22.00;;;10.47;;
41343;SDS011;27089;50.022;7.604;2022-12-18T02:26:40;19.73;;;10.30;;
41343;SDS011;27089;50.022;7.604;2022-12-18T02:29:13;21.37;;;10.93;;
41343;SDS011;27089;50.022;7.604;2022-12-18T02:31:43;26.60;;;12.27;;
41343;SDS011;27089;50.022;7.604;2022-12-18T02:34:15;22.13;;;11.67;;
41343;SDS011;27089;50.022;7.604;2022-12-18T02:36:43;24.40;;;11.70;;
41343;SDS011;27089;50.022;7.604;2022-12-18T02:39:12;26.37;;;14.07;;
41343;SDS011;27089;50.022;7.604;2022-12-18T02:41:42;29.60;;;14.27;;
41343;SDS011;27089;50.022;7.604;2022-12-18T02:44:12;25.47;;;12.87;;
41343;SDS011;27089;50.022;7.604;2022-12-18T02:46:40;25.80;;;12.50;;
41343;SDS011;27089;50.022;7.604;2022-12-18T02:49:17;22.93;;;11.90;;
41343;SDS011;27089;50.022;7.604;2022-12-18T02:51:51;24.93;;;12.47;;
41343;SDS011;27089;50.022;7.604;2022-12-18T02:54:24;26.83;;;13.40;;
41343;SDS011;27089;50.022;7.604;2022-12-18T02:57:05;23.30;;;12.43;;
41343;SDS011;27089;50.022;7.604;2022-12-18T02:59:41;23.17;;;12.23;;
41343;SDS011;27089;50.022;7.604;2022-12-18T03:02:17;26.77;;;12.37;;
41343;SDS011;27089;50.022;7.604;2022-12-18T03:04:52;25.97;;;13.07;;
41343;SDS011;27089;50.022;7.604;2022-12-18T03:07:26;29.70;;;13.23;;
41343;SDS011;27089;50.022;7.604;2022-12-18T03:09:59;32.50;;;14.60;;
41343;SDS011;27089;50.022;7.604;2022-12-18T03:12:30;31.30;;;15.33;;
41343;SDS011;27089;50.022;7.604;2022-12-18T03:15:01;27.43;;;14.23;;
41343;SDS011;27089;50.022;7.604;2022-12-18T03:17:33;27.77;;;14.10;;
41343;SDS011;27089;50.022;7.604;2022-12-18T03:20:03;31.03;;;14.97;;
41343;SDS011;27089;50.022;7.604;2022-12-18T03:22:33;28.90;;;13.60;;
41343;SDS011;27089;50.022;7.604;2022-12-18T03:25:04;26.90;;;13.60;;
41343;SDS011;27089;50.022;7.604;2022-12-18T03:27:36;26.40;;;13.10;;
41343;SDS011;27089;50.022;7.604;2022-12-18T03:30:08;24.43;;;11.60;;
41343;SDS011;27089;50.022;7.604;2022-12-18T03:32:39;27.73;;;13.70;;
41343;SDS011;27089;50.022;7.604;2022-12-18T03:35:09;23.57;;;12.17;;
41343;SDS011;27089;50.022;7.604;2022-12-18T03:37:39;23.80;;;11.97;;
41343;SDS011;27089;50.022;7.604;2022-12-18T03:40:06;23.33;;;12.00;;
41343;SDS011;27089;50.022;7.604;2022-12-18T03:42:37;23.30;;;11.77;;
41343;SDS011;27089;50.022;7.604;2022-12-18T03:45:12;23.43;;;12.23;;
41343;SDS011;27089;50.022;7.604;2022-12-18T03:47:46;24.30;;;13.03;;
41343;SDS011;27089;50.022;7.604;2022-12-18T03:50:22;25.93;;;12.93;;
41343;SDS011;27089;50.022;7.604;2022-12-18T03:52:57;26.97;;;13.07;;
41343;SDS011;27089;50.022;7.604;2022-12-18T03:55:29;30.60;;;14.10;;
41343;SDS011;27089;50.022;7.604;2022-12-18T03:58:01;29.80;;;13.57;;
41343;SDS011;27089;50.022;7.604;2022-12-18T04:00:30;27.27;;;13.00;;
41343;SDS011;27089;50.022;7.604;2022-12-18T04:02:58;27.07;;;13.50;;
41343;SDS011;27089;50.022;7.604;2022-12-18T04:05:27;23.97;;;13.33;;
41343;SDS011;27089;50.022;7.604;2022-12-18T04:07:55;23.60;;;12.33;;
41343;SDS011;27089;50.022;7.604;2022-12-18T04:10:23;26.67;;;13.07;;
41343;SDS011;27089;50.022;7.604;2022-12-18T04:12:50;27.30;;;13.80;;
41343;SDS011;27089;50.022;7.604;2022-12-18T04:15:23;28.03;;;12.80;;
41343;SDS011;27089;50.022;7.604;2022-12-18T04:17:50;25.97;;;13.33;;
41343;SDS011;27089;50.022;7.604;2022-12-18T04:20:17;30.87;;;14.60;;
41343;SDS011;27089;50.022;7.604;2022-12-18T04:22:44;26.73;;;13.70;;
41343;SDS011;27089;50.022;7.604;2022-12-18T04:25:12;26.27;;;14.10;;
41343;SDS011;27089;50.022;7.604;2022-12-18T04:27:39;29.93;;;14.03;;
41343;SDS011;27089;50.022;7.604;2022-12-18T04:30:06;25.87;;;13.87;;
41343;SDS011;27089;50.022;7.604;2022-12-18T04:32:35;29.17;;;14.60;;
41343;SDS011;27089;50.022;7.604;2022-12-18T04:35:02;25.97;;;13.30;;
41343;SDS011;27089;50.022;7.604;2022-12-18T04:37:31;25.63;;;13.07;;
41343;SDS011;27089;50.022;7.604;2022-12-18T04:39:58;31.40;;;15.17;;
41343;SDS011;27089;50.022;7.604;2022-12-18T04:42:25;32.97;;;14.70;;
41343;SDS011;27089;50.022;7.604;2022-12-18T04:44:52;34.27;;;16.13;;
41343;SDS011;27089;50.022;7.604;2022-12-18T04:47:19;34.20;;;15.87;;
41343;SDS011;27089;50.022;7.604;2022-12-18T04:49:47;35.60;;;17.20;;
41343;SDS011;27089;50.022;7.604;2022-12-18T04:52:14;30.17;;;14.20;;
41343;SDS011;27089;50.022;7.604;2022-12-18T04:54:41;32.93;;;15.33;;
41343;SDS011;27089;50.022;7.604;2022-12-18T04:57:08;35.43;;;15.73;;
41343;SDS011;27089;50.022;7.604;2022-12-18T04:59:35;33.37;;;16.20;;
41343;SDS011;27089;50.022;7.604;2022-12-18T05:02:02;32.13;;;16.20;;
41343;SDS011;27089;50.022;7.604;2022-12-18T05:04:29;25.20;;;12.13;;
41343;SDS011;27089;50.022;7.604;2022-12-18T05:06:57;26.03;;;14.23;;
41343;SDS011;27089;50.022;7.604;2022-12-18T05:09:24;32.83;;;16.40;;
41343;SDS011;27089;50.022;7.604;2022-12-18T05:11:51;29.87;;;15.57;;
41343;SDS011;27089;50.022;7.604;2022-12-18T05:14:18;32.70;;;15.60;;
41343;SDS011;27089;50.022;7.604;2022-12-18T05:16:46;34.73;;;17.03;;
41343;SDS011;27089;50.022;7.604;2022-12-18T05:19:13;35.03;;;17.97;;
41343;SDS011;27089;50.022;7.604;2022-12-18T05:21:40;35.60;;;18.90;;
41343;SDS011;27089;50.022;7.604;2022-12-18T05:24:08;30.13;;;14.97;;
41343;SDS011;27089;50.022;7.604;2022-12-18T05:26:35;27.00;;;15.43;;
41343;SDS011;27089;50.022;7.604;2022-12-18T05:29:02;33.47;;;16.23;;
41343;SDS011;27089;50.022;7.604;2022-12-18T05:31:29;26.07;;;14.47;;
41343;SDS011;27089;50.022;7.604;2022-12-18T05:33:56;33.13;;;16.53;;
41343;SDS011;27089;50.022;7.604;2022-12-18T05:36:23;27.63;;;13.17;;
41343;SDS011;27089;50.022;7.604;2022-12-18T05:38:50;30.40;;;15.27;;
41343;SDS011;27089;50.022;7.604;2022-12-18T05:41:19;33.33;;;16.20;;
41343;SDS011;27089;50.022;7.604;2022-12-18T05:43:46;31.10;;;15.07;;
41343;SDS011;27089;50.022;7.604;2022-12-18T05:46:13;29.13;;;14.77;;
41343;SDS011;27089;50.022;7.604;2022-12-18T05:48:42;34.00;;;16.10;;
41343;SDS011;27089;50.022;7.604;2022-12-18T05:51:11;33.87;;;17.23;;
41343;SDS011;27089;50.022;7.604;2022-12-18T05:53:40;28.37;;;15.17;;
41343;SDS011;27089;50.022;7.604;2022-12-18T05:56:08;28.53;;;14.57;;
41343;SDS011;27089;50.022;7.604;2022-12-18T05:58:38;31.40;;;17.33;;
41343;SDS011;27089;50.022;7.604;2022-12-18T06:01:06;34.83;;;17.77;;
41343;SDS011;27089;50.022;7.604;2022-12-18T06:03:35;35.67;;;17.40;;
41343;SDS011;27089;50.022;7.604;2022-12-18T06:06:02;31.00;;;15.90;;
41343;SDS011;27089;50.022;7.604;2022-12-18T06:08:29;33.23;;;17.57;;
41343;SDS011;27089;50.022;7.604;2022-12-18T06:10:56;36.67;;;17.93;;
41343;SDS011;27089;50.022;7.604;2022-12-18T06:13:23;38.10;;;18.30;;
41343;SDS011;27089;50.022;7.604;2022-12-18T06:15:51;37.57;;;18.37;;
41343;SDS011;27089;50.022;7.604;2022-12-18T06:18:18;35.50;;;17.60;;
41343;SDS011;27089;50.022;7.604;2022-12-18T06:20:53;28.83;;;15.00;;
41343;SDS011;27089;50.022;7.604;2022-12-18T06:23:21;39.63;;;18.37;;
41343;SDS011;27089;50.022;7.604;2022-12-18T06:25:48;29.73;;;15.83;;
41343;SDS011;27089;50.022;7.604;2022-12-18T06:28:15;33.97;;;17.60;;
41343;SDS011;27089;50.022;7.604;2022-12-18T06:30:42;31.27;;;16.23;;
41343;SDS011;27089;50.022;7.604;2022-12-18T06:33:11;35.03;;;17.73;;
41343;SDS011;27089;50.022;7.604;2022-12-18T06:35:38;29.17;;;15.90;;
41343;SDS011;27089;50.022;7.604;2022-12-18T06:38:05;37.33;;;18.50;;
41343;SDS011;27089;50.022;7.604;2022-12-18T06:40:32;42.27;;;19.03;;
41343;SDS011;27089;50.022;7.604;2022-12-18T06:42:59;38.53;;;19.27;;
41343;SDS011;27089;50.022;7.604;2022-12-18T06:45:26;34.77;;;16.43;;
41343;SDS011;27089;50.022;7.604;2022-12-18T06:47:53;36.40;;;18.70;;
41343;SDS011;27089;50.022;7.604;2022-12-18T06:50:22;34.77;;;18.07;;
41343;SDS011;27089;50.022;7.604;2022-12-18T06:52:48;36.50;;;18.10;;
41343;SDS011;27089;50.022;7.604;2022-12-18T06:55:16;39.73;;;19.23;;
41343;SDS011;27089;50.022;7.604;2022-12-18T06:57:43;34.23;;;17.17;;
41343;SDS011;27089;50.022;7.604;2022-12-18T07:00:10;39.93;;;19.07;;
41343;SDS011;27089;50.022;7.604;2022-12-18T07:02:38;42.53;;;20.07;;
41343;SDS011;27089;50.022;7.604;2022-12-18T07:05:06;42.37;;;20.17;;
41343;SDS011;27089;50.022;7.604;2022-12-18T07:07:34;34.00;;;18.07;;
41343;SDS011;27089;50.022;7.604;2022-12-18T07:10:01;28.30;;;14.83;;
41343;SDS011;27089;50.022;7.604;2022-12-18T07:12:29;28.80;;;14.07;;
41343;SDS011;27089;50.022;7.604;2022-12-18T07:14:55;35.93;;;17.00;;
41343;SDS011;27089;50.022;7.604;2022-12-18T07:17:22;34.43;;;16.33;;
41343;SDS011;27089;50.022;7.604;2022-12-18T07:19:49;46.97;;;16.33;;
41343;SDS011;27089;50.022;7.604;2022-12-18T07:22:16;36.50;;;18.10;;
41343;SDS011;27089;50.022;7.604;2022-12-18T07:24:45;30.17;;;14.20;;
41343;SDS011;27089;50.022;7.604;2022-12-18T07:27:12;28.53;;;15.23;;
41343;SDS011;27089;50.022;7.604;2022-12-18T07:29:39;34.67;;;17.77;;
41343;SDS011;27089;50.022;7.604;2022-12-18T07:32:06;35.57;;;17.23;;
41343;SDS011;27089;50.022;7.604;2022-12-18T07:34:33;33.50;;;17.90;;
41343;SDS011;27089;50.022;7.604;2022-12-18T07:37:00;32.97;;;16.77;;
41343;SDS011;27089;50.022;7.604;2022-12-18T07:39:27;37.00;;;18.50;;
41343;SDS011;27089;50.022;7.604;2022-12-18T07:41:56;40.23;;;18.23;;
41343;SDS011;27089;50.022;7.604;2022-12-18T07:44:40;35.67;;;18.57;;
41343;SDS011;27089;50.022;7.604;2022-12-18T07:47:07;40.03;;;19.30;;
41343;SDS011;27089;50.022;7.604;2022-12-18T07:49:34;28.30;;;14.83;;
41343;SDS011;27089;50.022;7.604;2022-12-18T07:52:01;36.47;;;20.23;;
41343;SDS011;27089;50.022;7.604;2022-12-18T07:54:28;42.97;;;20.63;;
41343;SDS011;27089;50.022;7.604;2022-12-18T07:56:57;34.90;;;18.57;;
41343;SDS011;27089;50.022;7.604;2022-12-18T07:59:24;43.40;;;20.90;;
41343;SDS011;27089;50.022;7.604;2022-12-18T08:01:51;35.10;;;18.37;;
41343;SDS011;27089;50.022;7.604;2022-12-18T08:04:18;40.57;;;20.70;;
41343;SDS011;27089;50.022;7.604;2022-12-18T08:06:45;40.53;;;19.43;;
41343;SDS011;27089;50.022;7.604;2022-12-18T08:09:12;39.27;;;19.20;;
41343;SDS011;27089;50.022;7.604;2022-12-18T08:11:40;38.60;;;18.67;;
41343;SDS011;27089;50.022;7.604;2022-12-18T08:14:08;32.17;;;14.50;;
41343;SDS011;27089;50.022;7.604;2022-12-18T08:16:35;37.30;;;19.67;;
41343;SDS011;27089;50.022;7.604;2022-12-18T08:19:02;32.77;;;16.20;;
41343;SDS011;27089;50.022;7.604;2022-12-18T08:21:30;31.23;;;18.10;;
41343;SDS011;27089;50.022;7.604;2022-12-18T08:23:58;37.93;;;17.60;;
41343;SDS011;27089;50.022;7.604;2022-12-18T08:26:27;36.13;;;19.27;;
41343;SDS011;27089;50.022;7.604;2022-12-18T08:28:55;34.03;;;17.27;;
41343;SDS011;27089;50.022;7.604;2022-12-18T08:31:25;44.15;;;25.10;;
41343;SDS011;27089;50.022;7.604;2022-12-18T08:33:53;39.17;;;20.53;;
41343;SDS011;27089;50.022;7.604;2022-12-18T08:36:21;30.93;;;15.93;;
41343;SDS011;27089;50.022;7.604;2022-12-18T08:38:49;38.17;;;19.03;;
41343;SDS011;27089;50.022;7.604;2022-12-18T08:41:16;34.53;;;15.50;;
41343;SDS011;27089;50.022;7.604;2022-12-18T08:43:44;38.47;;;19.53;;
41343;SDS011;27089;50.022;7.604;2022-12-18T08:46:32;39.47;;;18.83;;
41343;SDS011;27089;50.022;7.604;2022-12-18T08:49:01;35.33;;;19.40;;
41343;SDS011;27089;50.022;7.604;2022-12-18T08:51:29;25.77;;;14.40;;
41343;SDS011;27089;50.022;7.604;2022-12-18T08:53:56;32.50;;;16.17;;
41343;SDS011;27089;50.022;7.604;2022-12-18T08:56:23;34.87;;;16.43;;
41343;SDS011;27089;50.022;7.604;2022-12-18T08:58:51;27.23;;;14.30;;
41343;SDS011;27089;50.022;7.604;2022-12-18T09:01:20;35.10;;;18.37;;
41343;SDS011;27089;50.022;7.604;2022-12-18T09:03:49;28.37;;;14.70;;
41343;SDS011;27089;50.022;7.604;2022-12-18T09:06:17;33.13;;;17.07;;
41343;SDS011;27089;50.022;7.604;2022-12-18T09:08:46;34.60;;;15.70;;
41343;SDS011;27089;50.022;7.604;2022-12-18T09:11:14;35.03;;;17.23;;
41343;SDS011;27089;50.022;7.604;2022-12-18T09:13:44;32.17;;;16.20;;
41343;SDS011;27089;50.022;7.604;2022-12-18T09:16:12;33.03;;;18.17;;
41343;SDS011;27089;50.022;7.604;2022-12-18T09:18:39;30.00;;;14.47;;
41343;SDS011;27089;50.022;7.604;2022-12-18T09:21:11;34.70;;;16.80;;
41343;SDS011;27089;50.022;7.604;2022-12-18T09:23:39;33.67;;;16.93;;
41343;SDS011;27089;50.022;7.604;2022-12-18T09:26:07;34.77;;;16.33;;
41343;SDS011;27089;50.022;7.604;2022-12-18T09:28:34;34.00;;;17.63;;
41343;SDS011;27089;50.022;7.604;2022-12-18T09:31:03;32.23;;;16.17;;
41343;SDS011;27089;50.022;7.604;2022-12-18T09:33:33;31.13;;;16.67;;
41343;SDS011;27089;50.022;7.604;2022-12-18T09:36:01;32.40;;;16.23;;
41343;SDS011;27089;50.022;7.604;2022-12-18T09:38:30;34.60;;;20.60;;
41343;SDS011;27089;50.022;7.604;2022-12-18T09:40:59;34.60;;;18.90;;
41343;SDS011;27089;50.022;7.604;2022-12-18T09:43:33;31.97;;;16.83;;
41343;SDS011;27089;50.022;7.604;2022-12-18T09:46:04;27.23;;;16.30;;
41343;SDS011;27089;50.022;7.604;2022-12-18T09:48:35;28.80;;;15.60;;
41343;SDS011;27089;50.022;7.604;2022-12-18T09:51:09;29.23;;;14.83;;
41343;SDS011;27089;50.022;7.604;2022-12-18T09:53:43;30.53;;;15.87;;
41343;SDS011;27089;50.022;7.604;2022-12-18T09:56:18;29.73;;;14.40;;
41343;SDS011;27089;50.022;7.604;2022-12-18T09:58:49;27.97;;;14.50;;
41343;SDS011;27089;50.022;7.604;2022-12-18T10:01:21;29.10;;;13.97;;
41343;SDS011;27089;50.022;7.604;2022-12-18T10:03:49;18.23;;;10.33;;
41343;SDS011;27089;50.022;7.604;2022-12-18T10:06:18;26.07;;;13.60;;
41343;SDS011;27089;50.022;7.604;2022-12-18T10:08:53;29.20;;;14.80;;
41343;SDS011;27089;50.022;7.604;2022-12-18T10:11:28;26.77;;;14.20;;
41343;SDS011;27089;50.022;7.604;2022-12-18T10:14:06;25.33;;;13.83;;
41343;SDS011;27089;50.022;7.604;2022-12-18T10:16:42;24.50;;;12.73;;
41343;SDS011;27089;50.022;7.604;2022-12-18T10:19:21;22.90;;;11.83;;
41343;SDS011;27089;50.022;7.604;2022-12-18T10:22:03;30.67;;;15.87;;
41343;SDS011;27089;50.022;7.604;2022-12-18T10:24:44;29.40;;;15.27;;
41343;SDS011;27089;50.022;7.604;2022-12-18T10:27:21;28.27;;;14.73;;
41343;SDS011;27089;50.022;7.604;2022-12-18T10:29:49;33.97;;;17.07;;
41343;SDS011;27089;50.022;7.604;2022-12-18T10:32:17;45.30;;;19.23;;
41343;SDS011;27089;50.022;7.604;2022-12-18T10:34:46;33.07;;;16.37;;
41343;SDS011;27089;50.022;7.604;2022-12-18T10:37:15;30.90;;;15.87;;
41343;SDS011;27089;50.022;7.604;2022-12-18T10:39:45;28.07;;;15.17;;
41343;SDS011;27089;50.022;7.604;2022-12-18T10:42:16;29.43;;;15.37;;
41343;SDS011;27089;50.022;7.604;2022-12-18T10:44:45;27.70;;;15.50;;
41343;SDS011;27089;50.022;7.604;2022-12-18T10:47:13;25.70;;;14.53;;
41343;SDS011;27089;50.022;7.604;2022-12-18T10:49:46;32.80;;;17.50;;
41343;SDS011;27089;50.022;7.604;2022-12-18T10:52:18;31.27;;;16.17;;
41343;SDS011;27089;50.022;7.604;2022-12-18T10:54:49;29.30;;;15.63;;
41343;SDS011;27089;50.022;7.604;2022-12-18T10:57:29;29.67;;;14.60;;
41343;SDS011;27089;50.022;7.604;2022-12-18T10:59:59;30.37;;;16.30;;
41343;SDS011;27089;50.022;7.604;2022-12-18T11:02:39;29.83;;;14.87;;
41343;SDS011;27089;50.022;7.604;2022-12-18T11:07:53;29.73;;;15.53;;
41343;SDS011;27089;50.022;7.604;2022-12-18T11:10:23;31.23;;;16.33;;
41343;SDS011;27089;50.022;7.604;2022-12-18T11:12:54;28.93;;;15.70;;
41343;SDS011;27089;50.022;7.604;2022-12-18T11:15:23;29.63;;;15.70;;
41343;SDS011;27089;50.022;7.604;2022-12-18T11:17:54;28.93;;;15.77;;
41343;SDS011;27089;50.022;7.604;2022-12-18T11:20:25;33.47;;;15.93;;
41343;SDS011;27089;50.022;7.604;2022-12-18T11:22:58;28.67;;;15.07;;
41343;SDS011;27089;50.022;7.604;2022-12-18T11:25:31;34.37;;;18.23;;
41343;SDS011;27089;50.022;7.604;2022-12-18T11:28:00;33.07;;;16.20;;
41343;SDS011;27089;50.022;7.604;2022-12-18T11:30:29;33.60;;;17.63;;
41343;SDS011;27089;50.022;7.604;2022-12-18T11:32:59;29.80;;;15.93;;
41343;SDS011;27089;50.022;7.604;2022-12-18T11:35:35;29.57;;;16.17;;
41343;SDS011;27089;50.022;7.604;2022-12-18T11:38:12;29.73;;;15.27;;
41343;SDS011;27089;50.022;7.604;2022-12-18T11:40:49;30.67;;;15.57;;
41343;SDS011;27089;50.022;7.604;2022-12-18T11:43:22;31.07;;;15.50;;
41343;SDS011;27089;50.022;7.604;2022-12-18T11:45:54;32.13;;;17.00;;
41343;SDS011;27089;50.022;7.604;2022-12-18T11:48:25;29.00;;;15.93;;
41343;SDS011;27089;50.022;7.604;2022-12-18T11:50:56;31.30;;;16.37;;
41343;SDS011;27089;50.022;7.604;2022-12-18T11:53:25;30.47;;;15.63;;
41343;SDS011;27089;50.022;7.604;2022-12-18T11:56:05;26.03;;;14.50;;
41343;SDS011;27089;50.022;7.604;2022-12-18T11:58:50;33.30;;;15.60;;
41343;SDS011;27089;50.022;7.604;2022-12-18T12:01:28;24.57;;;15.17;;
41343;SDS011;27089;50.022;7.604;2022-12-18T12:07:16;33.63;;;17.60;;
41343;SDS011;27089;50.022;7.604;2022-12-18T12:09:52;32.57;;;16.90;;
41343;SDS011;27089;50.022;7.604;2022-12-18T12:12:32;35.30;;;17.33;;
41343;SDS011;27089;50.022;7.604;2022-12-18T12:15:20;37.43;;;17.87;;
41343;SDS011;27089;50.022;7.604;2022-12-18T12:17:56;34.40;;;16.70;;
41343;SDS011;27089;50.022;7.604;2022-12-18T12:23:18;35.83;;;17.80;;
41343;SDS011;27089;50.022;7.604;2022-12-18T12:25:54;36.13;;;16.93;;
41343;SDS011;27089;50.022;7.604;2022-12-18T12:28:32;37.03;;;16.33;;
41343;SDS011;27089;50.022;7.604;2022-12-18T12:31:12;35.77;;;17.40;;
41343;SDS011;27089;50.022;7.604;2022-12-18T12:33:46;31.60;;;15.87;;
41343;SDS011;27089;50.022;7.604;2022-12-18T12:36:21;43.95;;;24.33;;
41343;SDS011;27089;50.022;7.604;2022-12-18T12:38:56;37.57;;;19.43;;
41343;SDS011;27089;50.022;7.604;2022-12-18T12:41:27;45.77;;;26.13;;
41343;SDS011;27089;50.022;7.604;2022-12-18T12:44:20;41.03;;;20.53;;
41343;SDS011;27089;50.022;7.604;2022-12-18T12:46:50;34.90;;;18.37;;
41343;SDS011;27089;50.022;7.604;2022-12-18T12:49:21;38.23;;;16.83;;
41343;SDS011;27089;50.022;7.604;2022-12-18T12:51:56;35.43;;;18.33;;
41343;SDS011;27089;50.022;7.604;2022-12-18T12:54:26;31.57;;;18.53;;
41343;SDS011;27089;50.022;7.604;2022-12-18T12:56:56;34.73;;;18.60;;
41343;SDS011;27089;50.022;7.604;2022-12-18T12:59:28;41.50;;;19.73;;
41343;SDS011;27089;50.022;7.604;2022-12-18T13:02:10;33.87;;;16.03;;
41343;SDS011;27089;50.022;7.604;2022-12-18T13:04:48;40.57;;;18.90;;
41343;SDS011;27089;50.022;7.604;2022-12-18T13:07:20;36.50;;;17.03;;
41343;SDS011;27089;50.022;7.604;2022-12-18T13:12:59;29.83;;;16.17;;
41343;SDS011;27089;50.022;7.604;2022-12-18T13:15:39;35.40;;;17.03;;
41343;SDS011;27089;50.022;7.604;2022-12-18T13:18:17;39.50;;;18.43;;
41343;SDS011;27089;50.022;7.604;2022-12-18T13:20:48;32.23;;;17.43;;
41343;SDS011;27089;50.022;7.604;2022-12-18T13:23:25;32.40;;;16.60;;
41343;SDS011;27089;50.022;7.604;2022-12-18T13:28:59;36.03;;;18.57;;
41343;SDS011;27089;50.022;7.604;2022-12-18T13:34:36;38.90;;;18.07;;
41343;SDS011;27089;50.022;7.604;2022-12-18T13:43:30;36.03;;;18.70;;
41343;SDS011;27089;50.022;7.604;2022-12-18T13:48:50;39.90;;;19.13;;
41343;SDS011;27089;50.022;7.604;2022-12-18T13:51:22;44.13;;;18.60;;
41343;SDS011;27089;50.022;7.604;2022-12-18T13:53:52;39.00;;;19.33;;
41343;SDS011;27089;50.022;7.604;2022-12-18T13:56:22;40.37;;;20.07;;
41343;SDS011;27089;50.022;7.604;2022-12-18T13:59:04;43.43;;;21.80;;
41343;SDS011;27089;50.022;7.604;2022-12-18T14:01:41;41.67;;;20.03;;
41343;SDS011;27089;50.022;7.604;2022-12-18T14:04:10;36.17;;;19.97;;
41343;SDS011;27089;50.022;7.604;2022-12-18T14:06:39;44.73;;;21.30;;
41343;SDS011;27089;50.022;7.604;2022-12-18T14:09:10;40.37;;;19.60;;
41343;SDS011;27089;50.022;7.604;2022-12-18T14:11:40;45.03;;;19.27;;
41343;SDS011;27089;50.022;7.604;2022-12-18T14:14:13;42.57;;;19.50;;
41343;SDS011;27089;50.022;7.604;2022-12-18T14:16:41;46.47;;;21.10;;
41343;SDS011;27089;50.022;7.604;2022-12-18T14:19:09;45.60;;;21.33;;
41343;SDS011;27089;50.022;7.604;2022-12-18T14:21:41;39.20;;;19.33;;
41343;SDS011;27089;50.022;7.604;2022-12-18T14:24:13;52.67;;;22.00;;
41343;SDS011;27089;50.022;7.604;2022-12-18T14:26:43;48.23;;;21.77;;
41343;SDS011;27089;50.022;7.604;2022-12-18T14:29:21;46.53;;;21.03;;
41343;SDS011;27089;50.022;7.604;2022-12-18T14:32:06;46.23;;;21.20;;
41343;SDS011;27089;50.022;7.604;2022-12-18T14:34:34;48.00;;;21.50;;
41343;SDS011;27089;50.022;7.604;2022-12-18T14:37:02;49.93;;;22.57;;
41343;SDS011;27089;50.022;7.604;2022-12-18T14:39:30;55.73;;;24.10;;
41343;SDS011;27089;50.022;7.604;2022-12-18T14:41:56;43.83;;;21.43;;
41343;SDS011;27089;50.022;7.604;2022-12-18T14:44:23;56.40;;;25.20;;
41343;SDS011;27089;50.022;7.604;2022-12-18T14:46:50;51.73;;;23.83;;
41343;SDS011;27089;50.022;7.604;2022-12-18T14:49:19;64.93;;;27.90;;
41343;SDS011;27089;50.022;7.604;2022-12-18T14:51:49;121.80;;;41.43;;
41343;SDS011;27089;50.022;7.604;2022-12-18T14:54:19;81.47;;;32.93;;
41343;SDS011;27089;50.022;7.604;2022-12-18T14:56:47;58.93;;;26.07;;
41343;SDS011;27089;50.022;7.604;2022-12-18T14:59:17;92.53;;;35.73;;
41343;SDS011;27089;50.022;7.604;2022-12-18T15:01:56;81.03;;;34.37;;
41343;SDS011;27089;50.022;7.604;2022-12-18T15:04:27;58.73;;;26.90;;
41343;SDS011;27089;50.022;7.604;2022-12-18T15:07:03;57.80;;;26.43;;
41343;SDS011;27089;50.022;7.604;2022-12-18T15:09:34;75.70;;;29.83;;